sensor_id;sensor_type;location;lat;lon;timestamp;temperature;humidity
25918;DHT22;13899;51.174;4.456;2023-06-26T00:02:16;24.40;99.90
25918;DHT22;13899;51.174;4.456;2023-06-26T00:04:43;24.30;99.90
25918;DHT22;13899;51.174;4.456;2023-06-26T00:07:08;24.30;99.90
25918;DHT22;13899;51.174;4.456;2023-06-26T00:09:34;24.40;99.90
25918;DHT22;13899;51.174;4.456;2023-06-26T00:12:00;24.30;99.90
25918;DHT22;13899;51.174;4.456;2023-06-26T00:14:26;24.50;99.90
25918;DHT22;13899;51.174;4.456;2023-06-26T00:16:52;24.70;99.90
25918;DHT22;13899;51.174;4.456;2023-06-26T00:19:18;24.50;99.90
25918;DHT22;13899;51.174;4.456;2023-06-26T00:21:44;24.60;99.90
25918;DHT22;13899;51.174;4.456;2023-06-26T00:24:12;24.50;99.90
25918;DHT22;13899;51.174;4.456;2023-06-26T00:26:38;24.50;99.90
25918;DHT22;13899;51.174;4.456;2023-06-26T00:29:04;24.60;99.90
25918;DHT22;13899;51.174;4.456;2023-06-26T00:31:30;24.40;99.90
25918;DHT22;13899;51.174;4.456;2023-06-26T00:33:56;24.30;99.90
25918;DHT22;13899;51.174;4.456;2023-06-26T00:36:21;24.10;99.90
25918;DHT22;13899;51.174;4.456;2023-06-26T00:38:49;24.00;99.90
25918;DHT22;13899;51.174;4.456;2023-06-26T00:41:15;24.10;99.90
25918;DHT22;13899;51.174;4.456;2023-06-26T00:43:41;24.00;99.90
25918;DHT22;13899;51.174;4.456;2023-06-26T00:46:12;23.90;99.90
25918;DHT22;13899;51.174;4.456;2023-06-26T00:48:39;23.60;99.90
25918;DHT22;13899;51.174;4.456;2023-06-26T00:51:04;23.20;99.90
25918;DHT22;13899;51.174;4.456;2023-06-26T00:53:31;23.40;99.90
25918;DHT22;13899;51.174;4.456;2023-06-26T00:55:56;23.50;99.90
25918;DHT22;13899;51.174;4.456;2023-06-26T00:58:24;23.80;99.90
25918;DHT22;13899;51.174;4.456;2023-06-26T01:00:51;23.50;99.90
25918;DHT22;13899;51.174;4.456;2023-06-26T01:03:16;23.60;99.90
25918;DHT22;13899;51.174;4.456;2023-06-26T01:05:42;23.90;99.90
25918;DHT22;13899;51.174;4.456;2023-06-26T01:08:12;23.60;99.90
25918;DHT22;13899;51.174;4.456;2023-06-26T01:10:38;23.50;99.90
25918;DHT22;13899;51.174;4.456;2023-06-26T01:13:03;23.30;99.90
25918;DHT22;13899;51.174;4.456;2023-06-26T01:15:29;23.40;99.90
25918;DHT22;13899;51.174;4.456;2023-06-26T01:17:55;22.90;99.90
25918;DHT22;13899;51.174;4.456;2023-06-26T01:20:25;23.10;99.90
25918;DHT22;13899;51.174;4.456;2023-06-26T01:28:35;23.20;99.90
25918;DHT22;13899;51.174;4.456;2023-06-26T01:31:03;23.20;99.90
25918;DHT22;13899;51.174;4.456;2023-06-26T01:33:30;23.10;99.90
25918;DHT22;13899;51.174;4.456;2023-06-26T01:35:56;22.80;99.90
25918;DHT22;13899;51.174;4.456;2023-06-26T01:38:22;22.90;99.90
25918;DHT22;13899;51.174;4.456;2023-06-26T01:40:52;22.90;99.90
25918;DHT22;13899;51.174;4.456;2023-06-26T01:43:24;22.90;99.90
25918;DHT22;13899;51.174;4.456;2023-06-26T01:45:55;22.90;99.90
25918;DHT22;13899;51.174;4.456;2023-06-26T01:48:23;23.20;99.90
25918;DHT22;13899;51.174;4.456;2023-06-26T01:50:53;22.90;99.90
25918;DHT22;13899;51.174;4.456;2023-06-26T01:53:23;22.60;99.90
25918;DHT22;13899;51.174;4.456;2023-06-26T01:56:06;22.50;99.90
25918;DHT22;13899;51.174;4.456;2023-06-26T01:58:33;22.60;99.90
25918;DHT22;13899;51.174;4.456;2023-06-26T02:01:00;22.70;99.90
25918;DHT22;13899;51.174;4.456;2023-06-26T02:03:26;23.00;99.90
25918;DHT22;13899;51.174;4.456;2023-06-26T02:05:52;23.20;99.90
25918;DHT22;13899;51.174;4.456;2023-06-26T02:08:18;23.50;99.90
25918;DHT22;13899;51.174;4.456;2023-06-26T02:10:43;23.10;99.90
25918;DHT22;13899;51.174;4.456;2023-06-26T02:13:09;22.90;99.90
25918;DHT22;13899;51.174;4.456;2023-06-26T02:15:35;22.80;99.90
25918;DHT22;13899;51.174;4.456;2023-06-26T02:18:00;22.90;99.90
25918;DHT22;13899;51.174;4.456;2023-06-26T02:20:26;22.60;99.90
25918;DHT22;13899;51.174;4.456;2023-06-26T02:22:51;22.40;99.90
25918;DHT22;13899;51.174;4.456;2023-06-26T02:25:18;22.30;99.90
25918;DHT22;13899;51.174;4.456;2023-06-26T02:27:43;22.20;99.90
25918;DHT22;13899;51.174;4.456;2023-06-26T02:30:09;22.40;99.90
25918;DHT22;13899;51.174;4.456;2023-06-26T02:32:35;22.10;99.90
25918;DHT22;13899;51.174;4.456;2023-06-26T02:35:01;21.90;99.90
25918;DHT22;13899;51.174;4.456;2023-06-26T02:37:27;22.10;99.90
25918;DHT22;13899;51.174;4.456;2023-06-26T02:39:52;22.00;99.90
25918;DHT22;13899;51.174;4.456;2023-06-26T02:42:18;22.20;99.90
25918;DHT22;13899;51.174;4.456;2023-06-26T02:44:43;22.30;99.90
25918;DHT22;13899;51.174;4.456;2023-06-26T02:47:09;22.30;99.90
25918;DHT22;13899;51.174;4.456;2023-06-26T02:49:34;22.20;99.90
25918;DHT22;13899;51.174;4.456;2023-06-26T02:52:00;21.90;99.90
25918;DHT22;13899;51.174;4.456;2023-06-26T02:54:26;21.90;99.90
25918;DHT22;13899;51.174;4.456;2023-06-26T02:56:51;21.90;99.90
25918;DHT22;13899;51.174;4.456;2023-06-26T02:59:17;21.70;99.90
25918;DHT22;13899;51.174;4.456;2023-06-26T03:01:43;21.90;99.90
25918;DHT22;13899;51.174;4.456;2023-06-26T03:04:09;21.80;99.90
25918;DHT22;13899;51.174;4.456;2023-06-26T03:06:35;21.70;99.90
25918;DHT22;13899;51.174;4.456;2023-06-26T03:09:01;21.40;99.90
25918;DHT22;13899;51.174;4.456;2023-06-26T03:11:27;21.40;99.90
25918;DHT22;13899;51.174;4.456;2023-06-26T03:13:53;21.50;99.90
25918;DHT22;13899;51.174;4.456;2023-06-26T03:16:19;21.30;99.90
25918;DHT22;13899;51.174;4.456;2023-06-26T03:18:44;21.40;99.90
25918;DHT22;13899;51.174;4.456;2023-06-26T03:21:10;21.50;99.90
25918;DHT22;13899;51.174;4.456;2023-06-26T03:23:36;21.30;99.90
25918;DHT22;13899;51.174;4.456;2023-06-26T03:26:01;21.20;99.90
25918;DHT22;13899;51.174;4.456;2023-06-26T03:28:27;20.90;99.90
25918;DHT22;13899;51.174;4.456;2023-06-26T03:30:53;21.00;99.90
25918;DHT22;13899;51.174;4.456;2023-06-26T03:33:18;20.90;99.90
25918;DHT22;13899;51.174;4.456;2023-06-26T03:35:44;20.80;99.90
25918;DHT22;13899;51.174;4.456;2023-06-26T03:38:10;20.90;99.90
25918;DHT22;13899;51.174;4.456;2023-06-26T03:40:35;20.80;99.90
25918;DHT22;13899;51.174;4.456;2023-06-26T03:43:01;21.00;99.90
25918;DHT22;13899;51.174;4.456;2023-06-26T03:45:26;20.80;99.90
25918;DHT22;13899;51.174;4.456;2023-06-26T03:47:52;20.80;99.90
25918;DHT22;13899;51.174;4.456;2023-06-26T03:50:18;20.60;99.90
25918;DHT22;13899;51.174;4.456;2023-06-26T03:52:44;20.50;99.90
25918;DHT22;13899;51.174;4.456;2023-06-26T03:55:10;20.60;99.90
25918;DHT22;13899;51.174;4.456;2023-06-26T03:57:36;20.60;99.90
25918;DHT22;13899;51.174;4.456;2023-06-26T04:00:02;20.70;99.90
25918;DHT22;13899;51.174;4.456;2023-06-26T04:02:31;20.60;99.90
25918;DHT22;13899;51.174;4.456;2023-06-26T04:04:57;20.50;99.90
25918;DHT22;13899;51.174;4.456;2023-06-26T04:07:22;20.60;99.90
25918;DHT22;13899;51.174;4.456;2023-06-26T04:09:48;20.40;99.90
25918;DHT22;13899;51.174;4.456;2023-06-26T04:12:14;20.70;99.90
25918;DHT22;13899;51.174;4.456;2023-06-26T04:14:40;21.00;99.90
25918;DHT22;13899;51.174;4.456;2023-06-26T04:17:05;21.00;99.90
25918;DHT22;13899;51.174;4.456;2023-06-26T04:19:31;20.70;99.90
25918;DHT22;13899;51.174;4.456;2023-06-26T04:21:57;20.80;99.90
25918;DHT22;13899;51.174;4.456;2023-06-26T04:24:22;20.60;99.90
25918;DHT22;13899;51.174;4.456;2023-06-26T04:26:48;20.70;99.90
25918;DHT22;13899;51.174;4.456;2023-06-26T04:29:14;20.90;99.90
25918;DHT22;13899;51.174;4.456;2023-06-26T04:31:40;20.50;99.90
25918;DHT22;13899;51.174;4.456;2023-06-26T04:34:05;20.40;99.90
25918;DHT22;13899;51.174;4.456;2023-06-26T04:36:31;20.10;99.90
25918;DHT22;13899;51.174;4.456;2023-06-26T04:38:58;20.10;99.90
25918;DHT22;13899;51.174;4.456;2023-06-26T04:41:24;20.30;99.90
25918;DHT22;13899;51.174;4.456;2023-06-26T04:43:50;20.30;99.90
25918;DHT22;13899;51.174;4.456;2023-06-26T04:46:16;20.20;99.90
25918;DHT22;13899;51.174;4.456;2023-06-26T04:48:42;20.50;99.90
25918;DHT22;13899;51.174;4.456;2023-06-26T04:51:10;20.20;99.90
25918;DHT22;13899;51.174;4.456;2023-06-26T04:53:35;20.10;99.90
25918;DHT22;13899;51.174;4.456;2023-06-26T04:56:01;20.20;99.90
25918;DHT22;13899;51.174;4.456;2023-06-26T04:58:26;20.40;99.90
25918;DHT22;13899;51.174;4.456;2023-06-26T05:00:52;20.20;99.90
25918;DHT22;13899;51.174;4.456;2023-06-26T05:03:18;19.90;99.90
25918;DHT22;13899;51.174;4.456;2023-06-26T05:05:44;20.00;99.90
25918;DHT22;13899;51.174;4.456;2023-06-26T05:08:17;20.20;99.90
25918;DHT22;13899;51.174;4.456;2023-06-26T05:10:44;20.40;99.90
25918;DHT22;13899;51.174;4.456;2023-06-26T05:13:09;20.20;99.90
25918;DHT22;13899;51.174;4.456;2023-06-26T05:15:35;20.40;99.90
25918;DHT22;13899;51.174;4.456;2023-06-26T05:18:01;20.40;99.90
25918;DHT22;13899;51.174;4.456;2023-06-26T05:20:26;20.50;99.90
25918;DHT22;13899;51.174;4.456;2023-06-26T05:22:52;20.60;99.90
25918;DHT22;13899;51.174;4.456;2023-06-26T05:25:18;20.30;99.90
25918;DHT22;13899;51.174;4.456;2023-06-26T05:27:47;20.20;99.90
25918;DHT22;13899;51.174;4.456;2023-06-26T05:30:14;20.30;99.90
25918;DHT22;13899;51.174;4.456;2023-06-26T05:32:40;20.30;99.90
25918;DHT22;13899;51.174;4.456;2023-06-26T05:35:06;20.40;99.90
25918;DHT22;13899;51.174;4.456;2023-06-26T05:37:33;20.40;99.90
25918;DHT22;13899;51.174;4.456;2023-06-26T05:40:00;20.30;99.90
25918;DHT22;13899;51.174;4.456;2023-06-26T05:42:27;20.30;99.90
25918;DHT22;13899;51.174;4.456;2023-06-26T05:44:53;20.50;99.90
25918;DHT22;13899;51.174;4.456;2023-06-26T05:47:19;20.60;99.90
25918;DHT22;13899;51.174;4.456;2023-06-26T05:49:44;20.40;99.90
25918;DHT22;13899;51.174;4.456;2023-06-26T05:52:10;20.60;99.90
25918;DHT22;13899;51.174;4.456;2023-06-26T05:54:36;20.30;99.90
25918;DHT22;13899;51.174;4.456;2023-06-26T05:57:03;20.50;99.90
25918;DHT22;13899;51.174;4.456;2023-06-26T05:59:31;20.70;99.90
25918;DHT22;13899;51.174;4.456;2023-06-26T06:01:57;20.90;99.90
25918;DHT22;13899;51.174;4.456;2023-06-26T06:04:22;21.10;99.90
25918;DHT22;13899;51.174;4.456;2023-06-26T06:06:48;21.40;99.90
25918;DHT22;13899;51.174;4.456;2023-06-26T06:09:14;21.30;99.90
25918;DHT22;13899;51.174;4.456;2023-06-26T06:11:40;21.20;99.90
25918;DHT22;13899;51.174;4.456;2023-06-26T06:14:06;21.30;99.90
25918;DHT22;13899;51.174;4.456;2023-06-26T06:16:31;21.70;99.90
25918;DHT22;13899;51.174;4.456;2023-06-26T06:18:57;21.80;99.90
25918;DHT22;13899;51.174;4.456;2023-06-26T06:21:22;21.60;99.90
25918;DHT22;13899;51.174;4.456;2023-06-26T06:23:48;21.40;99.90
25918;DHT22;13899;51.174;4.456;2023-06-26T06:26:14;21.30;99.90
25918;DHT22;13899;51.174;4.456;2023-06-26T06:28:39;21.40;99.90
25918;DHT22;13899;51.174;4.456;2023-06-26T06:31:05;21.40;99.90
25918;DHT22;13899;51.174;4.456;2023-06-26T06:33:31;21.50;99.90
25918;DHT22;13899;51.174;4.456;2023-06-26T06:35:56;21.70;99.90
25918;DHT22;13899;51.174;4.456;2023-06-26T06:38:22;21.30;99.90
25918;DHT22;13899;51.174;4.456;2023-06-26T06:40:48;21.30;99.90
25918;DHT22;13899;51.174;4.456;2023-06-26T06:43:13;21.30;99.90
25918;DHT22;13899;51.174;4.456;2023-06-26T06:45:39;21.10;99.90
25918;DHT22;13899;51.174;4.456;2023-06-26T06:48:05;21.50;99.90
25918;DHT22;13899;51.174;4.456;2023-06-26T06:50:31;21.60;99.90
25918;DHT22;13899;51.174;4.456;2023-06-26T06:52:56;21.70;99.90
25918;DHT22;13899;51.174;4.456;2023-06-26T06:55:22;21.70;99.90
25918;DHT22;13899;51.174;4.456;2023-06-26T06:57:49;21.60;99.90
25918;DHT22;13899;51.174;4.456;2023-06-26T07:00:15;21.50;99.90
25918;DHT22;13899;51.174;4.456;2023-06-26T07:02:45;21.40;99.90
25918;DHT22;13899;51.174;4.456;2023-06-26T07:05:12;21.60;99.90
25918;DHT22;13899;51.174;4.456;2023-06-26T07:07:38;21.90;99.90
25918;DHT22;13899;51.174;4.456;2023-06-26T07:10:09;21.90;99.90
25918;DHT22;13899;51.174;4.456;2023-06-26T07:12:35;21.90;99.90
25918;DHT22;13899;51.174;4.456;2023-06-26T07:15:03;21.90;99.90
25918;DHT22;13899;51.174;4.456;2023-06-26T07:17:30;22.00;99.90
25918;DHT22;13899;51.174;4.456;2023-06-26T07:19:56;22.20;99.90
25918;DHT22;13899;51.174;4.456;2023-06-26T07:22:21;22.00;99.90
25918;DHT22;13899;51.174;4.456;2023-06-26T07:24:47;22.00;99.90
25918;DHT22;13899;51.174;4.456;2023-06-26T07:27:16;22.20;99.90
25918;DHT22;13899;51.174;4.456;2023-06-26T07:29:43;22.50;99.90
25918;DHT22;13899;51.174;4.456;2023-06-26T07:32:09;22.00;99.90
25918;DHT22;13899;51.174;4.456;2023-06-26T07:34:34;22.20;99.90
25918;DHT22;13899;51.174;4.456;2023-06-26T07:37:00;22.60;99.90
25918;DHT22;13899;51.174;4.456;2023-06-26T07:39:26;22.70;99.90
25918;DHT22;13899;51.174;4.456;2023-06-26T07:41:52;22.70;99.90
25918;DHT22;13899;51.174;4.456;2023-06-26T07:44:18;22.80;99.90
25918;DHT22;13899;51.174;4.456;2023-06-26T07:46:43;22.80;99.90
25918;DHT22;13899;51.174;4.456;2023-06-26T07:49:10;22.80;99.90
25918;DHT22;13899;51.174;4.456;2023-06-26T07:51:36;22.70;99.90
25918;DHT22;13899;51.174;4.456;2023-06-26T07:54:01;22.50;99.90
25918;DHT22;13899;51.174;4.456;2023-06-26T07:56:27;22.60;99.90
25918;DHT22;13899;51.174;4.456;2023-06-26T07:58:53;22.80;99.90
25918;DHT22;13899;51.174;4.456;2023-06-26T08:01:18;22.80;99.90
25918;DHT22;13899;51.174;4.456;2023-06-26T08:03:44;22.90;99.90
25918;DHT22;13899;51.174;4.456;2023-06-26T08:06:09;23.00;99.90
25918;DHT22;13899;51.174;4.456;2023-06-26T08:08:35;22.80;99.90
25918;DHT22;13899;51.174;4.456;2023-06-26T08:11:01;23.00;99.90
25918;DHT22;13899;51.174;4.456;2023-06-26T08:13:28;22.60;99.90
25918;DHT22;13899;51.174;4.456;2023-06-26T08:15:53;22.90;99.90
25918;DHT22;13899;51.174;4.456;2023-06-26T08:18:19;22.50;99.90
25918;DHT22;13899;51.174;4.456;2023-06-26T08:20:45;22.50;99.90
25918;DHT22;13899;51.174;4.456;2023-06-26T08:23:10;22.40;99.90
25918;DHT22;13899;51.174;4.456;2023-06-26T08:25:36;22.20;99.90
25918;DHT22;13899;51.174;4.456;2023-06-26T08:28:01;22.60;99.90
25918;DHT22;13899;51.174;4.456;2023-06-26T08:30:27;22.80;99.90
25918;DHT22;13899;51.174;4.456;2023-06-26T08:32:55;23.00;99.90
25918;DHT22;13899;51.174;4.456;2023-06-26T08:35:20;23.20;99.90
25918;DHT22;13899;51.174;4.456;2023-06-26T08:37:46;23.40;99.90
25918;DHT22;13899;51.174;4.456;2023-06-26T08:40:12;23.50;99.90
25918;DHT22;13899;51.174;4.456;2023-06-26T08:42:38;22.80;99.90
25918;DHT22;13899;51.174;4.456;2023-06-26T08:45:03;23.10;99.90
25918;DHT22;13899;51.174;4.456;2023-06-26T08:47:30;23.60;99.90
25918;DHT22;13899;51.174;4.456;2023-06-26T08:50:08;23.60;99.90
25918;DHT22;13899;51.174;4.456;2023-06-26T08:55:43;23.00;99.90
25918;DHT22;13899;51.174;4.456;2023-06-26T08:58:08;23.00;99.90
25918;DHT22;13899;51.174;4.456;2023-06-26T09:00:34;23.10;99.90
25918;DHT22;13899;51.174;4.456;2023-06-26T09:03:01;23.10;99.90
25918;DHT22;13899;51.174;4.456;2023-06-26T09:05:28;23.30;99.90
25918;DHT22;13899;51.174;4.456;2023-06-26T09:07:54;23.40;99.90
25918;DHT22;13899;51.174;4.456;2023-06-26T09:10:23;23.60;99.90
25918;DHT22;13899;51.174;4.456;2023-06-26T09:12:50;24.00;99.90
25918;DHT22;13899;51.174;4.456;2023-06-26T09:15:19;24.20;99.90
25918;DHT22;13899;51.174;4.456;2023-06-26T09:17:44;24.00;99.90
25918;DHT22;13899;51.174;4.456;2023-06-26T09:20:10;24.10;99.90
25918;DHT22;13899;51.174;4.456;2023-06-26T09:22:37;24.20;99.90
25918;DHT22;13899;51.174;4.456;2023-06-26T09:25:06;24.10;99.90
25918;DHT22;13899;51.174;4.456;2023-06-26T09:27:34;24.40;99.90
25918;DHT22;13899;51.174;4.456;2023-06-26T09:29:59;24.50;99.90
25918;DHT22;13899;51.174;4.456;2023-06-26T09:32:25;24.40;99.90
25918;DHT22;13899;51.174;4.456;2023-06-26T09:34:53;24.40;99.90
25918;DHT22;13899;51.174;4.456;2023-06-26T09:37:19;24.10;99.90
25918;DHT22;13899;51.174;4.456;2023-06-26T09:39:45;24.10;99.90
25918;DHT22;13899;51.174;4.456;2023-06-26T09:42:13;24.30;99.90
25918;DHT22;13899;51.174;4.456;2023-06-26T09:44:44;24.80;99.90
25918;DHT22;13899;51.174;4.456;2023-06-26T09:47:10;24.90;99.90
25918;DHT22;13899;51.174;4.456;2023-06-26T09:49:36;24.50;99.90
25918;DHT22;13899;51.174;4.456;2023-06-26T09:52:03;24.90;99.90
25918;DHT22;13899;51.174;4.456;2023-06-26T09:54:29;24.70;99.90
25918;DHT22;13899;51.174;4.456;2023-06-26T09:57:06;25.00;99.90
25918;DHT22;13899;51.174;4.456;2023-06-26T09:59:32;25.00;99.90
25918;DHT22;13899;51.174;4.456;2023-06-26T10:01:59;25.20;99.90
25918;DHT22;13899;51.174;4.456;2023-06-26T10:04:25;25.00;99.90
25918;DHT22;13899;51.174;4.456;2023-06-26T10:06:51;24.90;99.90
25918;DHT22;13899;51.174;4.456;2023-06-26T10:09:21;24.20;99.90
25918;DHT22;13899;51.174;4.456;2023-06-26T10:14:15;25.50;99.90
25918;DHT22;13899;51.174;4.456;2023-06-26T10:16:41;26.10;99.90
25918;DHT22;13899;51.174;4.456;2023-06-26T10:19:09;27.10;99.90
25918;DHT22;13899;51.174;4.456;2023-06-26T10:21:38;27.80;99.90
25918;DHT22;13899;51.174;4.456;2023-06-26T10:24:06;28.10;97.70
25918;DHT22;13899;51.174;4.456;2023-06-26T10:26:36;29.40;95.10
25918;DHT22;13899;51.174;4.456;2023-06-26T10:29:04;30.10;85.80
25918;DHT22;13899;51.174;4.456;2023-06-26T10:31:31;30.40;84.10
25918;DHT22;13899;51.174;4.456;2023-06-26T10:33:57;30.80;80.70
25918;DHT22;13899;51.174;4.456;2023-06-26T10:36:30;30.70;77.00
25918;DHT22;13899;51.174;4.456;2023-06-26T10:38:59;30.70;75.30
25918;DHT22;13899;51.174;4.456;2023-06-26T10:41:27;29.20;73.20
25918;DHT22;13899;51.174;4.456;2023-06-26T10:46:27;28.50;76.90
25918;DHT22;13899;51.174;4.456;2023-06-26T10:49:01;28.50;80.00
25918;DHT22;13899;51.174;4.456;2023-06-26T10:51:27;29.00;80.30
25918;DHT22;13899;51.174;4.456;2023-06-26T10:53:57;29.90;77.30
25918;DHT22;13899;51.174;4.456;2023-06-26T10:59:27;31.00;73.40
25918;DHT22;13899;51.174;4.456;2023-06-26T11:02:01;30.20;65.70
25918;DHT22;13899;51.174;4.456;2023-06-26T11:04:51;31.00;68.10
25918;DHT22;13899;51.174;4.456;2023-06-26T11:07:22;31.80;65.10
25918;DHT22;13899;51.174;4.456;2023-06-26T11:09:57;30.80;67.20
25918;DHT22;13899;51.174;4.456;2023-06-26T11:12:40;31.40;67.90
25918;DHT22;13899;51.174;4.456;2023-06-26T11:15:11;31.30;67.00
25918;DHT22;13899;51.174;4.456;2023-06-26T11:17:39;31.40;64.20
25918;DHT22;13899;51.174;4.456;2023-06-26T11:20:08;31.20;62.20
25918;DHT22;13899;51.174;4.456;2023-06-26T11:22:36;31.30;61.00
25918;DHT22;13899;51.174;4.456;2023-06-26T11:25:03;29.90;65.20
25918;DHT22;13899;51.174;4.456;2023-06-26T11:27:47;29.50;66.60
25918;DHT22;13899;51.174;4.456;2023-06-26T11:30:23;28.50;66.80
25918;DHT22;13899;51.174;4.456;2023-06-26T11:32:49;28.00;68.90
25918;DHT22;13899;51.174;4.456;2023-06-26T11:35:25;28.90;68.20
25918;DHT22;13899;51.174;4.456;2023-06-26T11:37:59;30.50;66.60
25918;DHT22;13899;51.174;4.456;2023-06-26T11:40:29;31.60;62.60
25918;DHT22;13899;51.174;4.456;2023-06-26T11:42:58;31.40;64.30
25918;DHT22;13899;51.174;4.456;2023-06-26T11:45:29;30.90;64.40
25918;DHT22;13899;51.174;4.456;2023-06-26T11:47:56;31.00;66.10
25918;DHT22;13899;51.174;4.456;2023-06-26T11:50:23;30.00;67.30
25918;DHT22;13899;51.174;4.456;2023-06-26T11:52:55;29.20;66.80
25918;DHT22;13899;51.174;4.456;2023-06-26T11:55:22;28.10;69.00
25918;DHT22;13899;51.174;4.456;2023-06-26T11:57:55;28.30;68.30
25918;DHT22;13899;51.174;4.456;2023-06-26T12:00:21;28.30;68.00
25918;DHT22;13899;51.174;4.456;2023-06-26T12:02:47;29.30;69.20
25918;DHT22;13899;51.174;4.456;2023-06-26T12:05:14;29.10;66.70
25918;DHT22;13899;51.174;4.456;2023-06-26T12:07:42;28.80;66.00
25918;DHT22;13899;51.174;4.456;2023-06-26T12:10:10;29.10;66.50
25918;DHT22;13899;51.174;4.456;2023-06-26T12:12:37;28.70;67.70
25918;DHT22;13899;51.174;4.456;2023-06-26T12:15:03;28.60;70.60
25918;DHT22;13899;51.174;4.456;2023-06-26T12:17:29;29.00;69.90
25918;DHT22;13899;51.174;4.456;2023-06-26T12:19:55;28.20;70.20
25918;DHT22;13899;51.174;4.456;2023-06-26T12:22:20;27.70;72.70
25918;DHT22;13899;51.174;4.456;2023-06-26T12:24:47;27.70;74.00
25918;DHT22;13899;51.174;4.456;2023-06-26T12:27:14;28.50;72.10
25918;DHT22;13899;51.174;4.456;2023-06-26T12:29:46;29.40;72.00
25918;DHT22;13899;51.174;4.456;2023-06-26T12:32:12;29.70;67.60
25918;DHT22;13899;51.174;4.456;2023-06-26T12:34:40;29.90;64.50
25918;DHT22;13899;51.174;4.456;2023-06-26T12:37:10;30.20;63.40
25918;DHT22;13899;51.174;4.456;2023-06-26T12:39:49;31.10;63.60
25918;DHT22;13899;51.174;4.456;2023-06-26T12:42:20;32.90;62.00
25918;DHT22;13899;51.174;4.456;2023-06-26T12:44:46;33.30;57.10
25918;DHT22;13899;51.174;4.456;2023-06-26T12:47:15;32.30;57.70
25918;DHT22;13899;51.174;4.456;2023-06-26T12:49:42;32.70;58.30
25918;DHT22;13899;51.174;4.456;2023-06-26T12:52:12;30.80;57.90
25918;DHT22;13899;51.174;4.456;2023-06-26T12:54:39;30.70;57.50
25918;DHT22;13899;51.174;4.456;2023-06-26T12:57:06;31.90;57.50
25918;DHT22;13899;51.174;4.456;2023-06-26T12:59:33;33.30;55.30
25918;DHT22;13899;51.174;4.456;2023-06-26T13:01:59;33.40;52.70
25918;DHT22;13899;51.174;4.456;2023-06-26T13:04:24;33.10;53.10
25918;DHT22;13899;51.174;4.456;2023-06-26T13:06:51;33.40;53.80
25918;DHT22;13899;51.174;4.456;2023-06-26T13:09:17;33.70;52.10
25918;DHT22;13899;51.174;4.456;2023-06-26T13:11:42;34.70;51.70
25918;DHT22;13899;51.174;4.456;2023-06-26T13:14:08;34.90;50.30
25918;DHT22;13899;51.174;4.456;2023-06-26T13:16:34;33.90;52.20
25918;DHT22;13899;51.174;4.456;2023-06-26T13:19:00;32.60;51.40
25918;DHT22;13899;51.174;4.456;2023-06-26T13:21:27;32.30;52.30
25918;DHT22;13899;51.174;4.456;2023-06-26T13:23:53;33.30;51.00
25918;DHT22;13899;51.174;4.456;2023-06-26T13:26:19;34.30;50.10
25918;DHT22;13899;51.174;4.456;2023-06-26T13:28:47;33.50;50.40
25918;DHT22;13899;51.174;4.456;2023-06-26T13:31:13;32.30;51.20
25918;DHT22;13899;51.174;4.456;2023-06-26T13:33:39;30.60;53.20
25918;DHT22;13899;51.174;4.456;2023-06-26T13:36:04;29.80;54.70
25918;DHT22;13899;51.174;4.456;2023-06-26T13:38:33;30.10;57.60
25918;DHT22;13899;51.174;4.456;2023-06-26T13:40:58;31.40;56.90
25918;DHT22;13899;51.174;4.456;2023-06-26T13:43:27;32.40;56.60
25918;DHT22;13899;51.174;4.456;2023-06-26T13:45:53;32.80;54.10
25918;DHT22;13899;51.174;4.456;2023-06-26T13:48:19;33.00;55.80
25918;DHT22;13899;51.174;4.456;2023-06-26T13:50:46;33.20;55.60
25918;DHT22;13899;51.174;4.456;2023-06-26T13:53:11;33.00;54.20
25918;DHT22;13899;51.174;4.456;2023-06-26T13:55:37;32.40;54.80
25918;DHT22;13899;51.174;4.456;2023-06-26T13:58:04;30.80;57.00
25918;DHT22;13899;51.174;4.456;2023-06-26T14:00:31;31.00;57.00
25918;DHT22;13899;51.174;4.456;2023-06-26T14:02:59;31.40;56.80
25918;DHT22;13899;51.174;4.456;2023-06-26T14:05:25;32.00;57.90
25918;DHT22;13899;51.174;4.456;2023-06-26T14:07:50;32.50;55.50
25918;DHT22;13899;51.174;4.456;2023-06-26T14:10:16;31.60;58.40
25918;DHT22;13899;51.174;4.456;2023-06-26T14:12:41;31.90;58.70
25918;DHT22;13899;51.174;4.456;2023-06-26T14:15:07;32.20;58.30
25918;DHT22;13899;51.174;4.456;2023-06-26T14:17:33;32.00;57.10
25918;DHT22;13899;51.174;4.456;2023-06-26T14:19:59;32.00;56.90
25918;DHT22;13899;51.174;4.456;2023-06-26T14:22:25;32.80;54.30
25918;DHT22;13899;51.174;4.456;2023-06-26T14:24:53;32.20;54.20
25918;DHT22;13899;51.174;4.456;2023-06-26T14:27:19;31.60;55.90
25918;DHT22;13899;51.174;4.456;2023-06-26T14:29:44;31.00;57.00
25918;DHT22;13899;51.174;4.456;2023-06-26T14:32:10;30.40;58.60
25918;DHT22;13899;51.174;4.456;2023-06-26T14:34:36;30.20;59.20
25918;DHT22;13899;51.174;4.456;2023-06-26T14:37:02;30.00;59.30
25918;DHT22;13899;51.174;4.456;2023-06-26T14:39:27;29.80;59.30
25918;DHT22;13899;51.174;4.456;2023-06-26T14:41:53;30.30;59.30
25918;DHT22;13899;51.174;4.456;2023-06-26T14:44:19;30.50;58.20
25918;DHT22;13899;51.174;4.456;2023-06-26T14:46:44;30.00;58.90
25918;DHT22;13899;51.174;4.456;2023-06-26T14:49:10;30.30;58.80
25918;DHT22;13899;51.174;4.456;2023-06-26T14:51:35;30.20;59.40
25918;DHT22;13899;51.174;4.456;2023-06-26T14:54:01;30.20;58.60
25918;DHT22;13899;51.174;4.456;2023-06-26T14:56:27;29.90;58.90
25918;DHT22;13899;51.174;4.456;2023-06-26T14:58:52;29.90;58.70
25918;DHT22;13899;51.174;4.456;2023-06-26T15:01:19;29.50;58.80
25918;DHT22;13899;51.174;4.456;2023-06-26T15:03:46;29.20;59.00
25918;DHT22;13899;51.174;4.456;2023-06-26T15:06:12;29.10;59.80
25918;DHT22;13899;51.174;4.456;2023-06-26T15:08:38;29.00;59.30
25918;DHT22;13899;51.174;4.456;2023-06-26T15:11:04;28.70;59.60
25918;DHT22;13899;51.174;4.456;2023-06-26T15:13:29;28.50;59.90
25918;DHT22;13899;51.174;4.456;2023-06-26T15:15:55;28.30;59.80
25918;DHT22;13899;51.174;4.456;2023-06-26T15:18:21;28.60;58.50
25918;DHT22;13899;51.174;4.456;2023-06-26T15:20:46;28.30;58.20
25918;DHT22;13899;51.174;4.456;2023-06-26T15:23:12;28.40;58.40
25918;DHT22;13899;51.174;4.456;2023-06-26T15:25:38;27.90;58.20
25918;DHT22;13899;51.174;4.456;2023-06-26T15:28:04;27.80;57.70
25918;DHT22;13899;51.174;4.456;2023-06-26T15:30:30;28.00;58.20
25918;DHT22;13899;51.174;4.456;2023-06-26T15:32:56;27.60;57.50
25918;DHT22;13899;51.174;4.456;2023-06-26T15:35:22;27.10;59.20
25918;DHT22;13899;51.174;4.456;2023-06-26T15:37:47;27.00;59.40
25918;DHT22;13899;51.174;4.456;2023-06-26T15:40:15;27.30;59.90
25918;DHT22;13899;51.174;4.456;2023-06-26T15:42:48;27.60;58.50
25918;DHT22;13899;51.174;4.456;2023-06-26T15:45:14;27.40;57.60